sensor_id;sensor_type;location;lat;lon;timestamp;P1;durP1;ratioP1;P2;durP2;ratioP2
51828;SDS011;37881;48.024;8.774;2022-08-01T00:02:00;4.73;;;3.77;;
51828;SDS011;37881;48.024;8.774;2022-08-01T00:04:27;4.93;;;3.38;;
51828;SDS011;37881;48.024;8.774;2022-08-01T00:06:54;4.70;;;3.55;;
51828;SDS011;37881;48.024;8.774;2022-08-01T00:09:20;4.85;;;3.10;;
51828;SDS011;37881;48.024;8.774;2022-08-01T00:11:49;5.13;;;3.88;;
51828;SDS011;37881;48.024;8.774;2022-08-01T00:14:25;5.77;;;3.40;;
51828;SDS011;37881;48.024;8.774;2022-08-01T00:16:58;4.90;;;3.20;;
51828;SDS011;37881;48.024;8.774;2022-08-01T00:19:32;5.28;;;3.53;;
51828;SDS011;37881;48.024;8.774;2022-08-01T00:21:59;5.95;;;3.00;;
51828;SDS011;37881;48.024;8.774;2022-08-01T00:24:26;4.60;;;2.97;;
51828;SDS011;37881;48.024;8.774;2022-08-01T00:26:52;5.13;;;2.70;;
51828;SDS011;37881;48.024;8.774;2022-08-01T00:29:19;8.32;;;2.80;;
51828;SDS011;37881;48.024;8.774;2022-08-01T00:32:06;5.97;;;3.10;;
51828;SDS011;37881;48.024;8.774;2022-08-01T00:34:33;5.93;;;2.90;;
51828;SDS011;37881;48.024;8.774;2022-08-01T00:37:00;5.03;;;2.80;;
51828;SDS011;37881;48.024;8.774;2022-08-01T00:39:27;4.87;;;2.53;;
51828;SDS011;37881;48.024;8.774;2022-08-01T00:41:53;4.07;;;2.40;;
51828;SDS011;37881;48.024;8.774;2022-08-01T00:44:26;3.65;;;2.45;;
51828;SDS011;37881;48.024;8.774;2022-08-01T00:46:53;3.72;;;2.50;;
51828;SDS011;37881;48.024;8.774;2022-08-01T00:49:20;5.95;;;2.63;;
51828;SDS011;37881;48.024;8.774;2022-08-01T00:51:47;3.70;;;2.40;;
51828;SDS011;37881;48.024;8.774;2022-08-01T00:54:14;6.63;;;3.80;;
51828;SDS011;37881;48.024;8.774;2022-08-01T00:56:42;5.75;;;4.00;;
51828;SDS011;37881;48.024;8.774;2022-08-01T00:59:10;5.20;;;3.60;;
51828;SDS011;37881;48.024;8.774;2022-08-01T01:01:40;5.15;;;3.42;;
51828;SDS011;37881;48.024;8.774;2022-08-01T01:04:15;4.60;;;3.57;;
51828;SDS011;37881;48.024;8.774;2022-08-01T01:11:52;5.22;;;3.75;;
51828;SDS011;37881;48.024;8.774;2022-08-01T01:17:38;4.97;;;3.30;;
51828;SDS011;37881;48.024;8.774;2022-08-01T01:20:17;4.68;;;3.30;;
51828;SDS011;37881;48.024;8.774;2022-08-01T01:25:51;4.82;;;3.30;;
51828;SDS011;37881;48.024;8.774;2022-08-01T01:31:33;4.60;;;3.30;;
51828;SDS011;37881;48.024;8.774;2022-08-01T01:34:09;5.05;;;3.30;;
51828;SDS011;37881;48.024;8.774;2022-08-01T01:36:38;5.15;;;3.47;;
51828;SDS011;37881;48.024;8.774;2022-08-01T01:39:06;5.90;;;3.70;;
51828;SDS011;37881;48.024;8.774;2022-08-01T01:41:33;5.57;;;3.70;;
51828;SDS011;37881;48.024;8.774;2022-08-01T01:44:04;8.00;;;3.60;;
51828;SDS011;37881;48.024;8.774;2022-08-01T01:46:31;7.20;;;3.67;;
51828;SDS011;37881;48.024;8.774;2022-08-01T01:48:59;6.25;;;3.67;;
51828;SDS011;37881;48.024;8.774;2022-08-01T01:51:27;8.30;;;3.70;;
51828;SDS011;37881;48.024;8.774;2022-08-01T01:53:56;6.03;;;3.67;;
51828;SDS011;37881;48.024;8.774;2022-08-01T01:56:25;8.07;;;3.90;;
51828;SDS011;37881;48.024;8.774;2022-08-01T01:58:54;7.32;;;4.13;;
51828;SDS011;37881;48.024;8.774;2022-08-01T02:01:24;5.72;;;4.30;;
51828;SDS011;37881;48.024;8.774;2022-08-01T02:04:14;6.78;;;4.00;;
51828;SDS011;37881;48.024;8.774;2022-08-01T02:06:43;5.63;;;4.20;;
51828;SDS011;37881;48.024;8.774;2022-08-01T02:09:11;7.07;;;4.03;;
51828;SDS011;37881;48.024;8.774;2022-08-01T02:11:40;11.45;;;6.75;;
51828;SDS011;37881;48.024;8.774;2022-08-01T02:14:28;12.35;;;7.95;;
51828;SDS011;37881;48.024;8.774;2022-08-01T02:16:56;6.63;;;4.50;;
51828;SDS011;37881;48.024;8.774;2022-08-01T02:19:25;6.20;;;4.05;;
51828;SDS011;37881;48.024;8.774;2022-08-01T02:21:55;7.07;;;3.90;;
51828;SDS011;37881;48.024;8.774;2022-08-01T02:24:35;5.82;;;3.80;;
51828;SDS011;37881;48.024;8.774;2022-08-01T02:27:11;5.50;;;3.80;;
51828;SDS011;37881;48.024;8.774;2022-08-01T02:29:49;5.22;;;3.75;;
51828;SDS011;37881;48.024;8.774;2022-08-01T02:32:20;6.82;;;3.80;;
51828;SDS011;37881;48.024;8.774;2022-08-01T02:34:50;5.60;;;4.00;;
51828;SDS011;37881;48.024;8.774;2022-08-01T02:37:19;6.15;;;3.75;;
51828;SDS011;37881;48.024;8.774;2022-08-01T02:39:47;6.80;;;3.92;;
51828;SDS011;37881;48.024;8.774;2022-08-01T02:42:19;8.43;;;4.40;;
51828;SDS011;37881;48.024;8.774;2022-08-01T02:44:48;7.75;;;5.00;;
51828;SDS011;37881;48.024;8.774;2022-08-01T02:47:16;13.47;;;7.37;;
51828;SDS011;37881;48.024;8.774;2022-08-01T02:49:47;5.85;;;4.03;;
51828;SDS011;37881;48.024;8.774;2022-08-01T02:52:20;5.88;;;4.28;;
51828;SDS011;37881;48.024;8.774;2022-08-01T02:54:50;6.53;;;4.15;;
51828;SDS011;37881;48.024;8.774;2022-08-01T02:57:19;5.72;;;4.22;;
51828;SDS011;37881;48.024;8.774;2022-08-01T02:59:50;9.03;;;4.13;;
51828;SDS011;37881;48.024;8.774;2022-08-01T03:02:21;6.72;;;4.18;;
51828;SDS011;37881;48.024;8.774;2022-08-01T03:04:49;5.50;;;3.95;;
51828;SDS011;37881;48.024;8.774;2022-08-01T03:07:22;5.38;;;3.83;;
51828;SDS011;37881;48.024;8.774;2022-08-01T03:09:59;6.40;;;4.13;;
51828;SDS011;37881;48.024;8.774;2022-08-01T03:12:29;5.93;;;4.03;;
51828;SDS011;37881;48.024;8.774;2022-08-01T03:14:57;6.00;;;4.10;;
51828;SDS011;37881;48.024;8.774;2022-08-01T03:17:27;6.13;;;4.30;;
51828;SDS011;37881;48.024;8.774;2022-08-01T03:19:55;6.20;;;4.40;;
51828;SDS011;37881;48.024;8.774;2022-08-01T03:22:25;6.25;;;4.43;;
51828;SDS011;37881;48.024;8.774;2022-08-01T03:24:54;5.50;;;3.80;;
51828;SDS011;37881;48.024;8.774;2022-08-01T03:27:23;5.50;;;3.88;;
51828;SDS011;37881;48.024;8.774;2022-08-01T03:29:51;6.57;;;4.18;;
51828;SDS011;37881;48.024;8.774;2022-08-01T03:32:22;6.32;;;3.88;;
51828;SDS011;37881;48.024;8.774;2022-08-01T03:34:49;6.90;;;3.85;;
51828;SDS011;37881;48.024;8.774;2022-08-01T03:37:24;5.97;;;4.00;;
51828;SDS011;37881;48.024;8.774;2022-08-01T03:42:37;7.38;;;4.60;;
51828;SDS011;37881;48.024;8.774;2022-08-01T03:45:15;7.18;;;4.53;;
51828;SDS011;37881;48.024;8.774;2022-08-01T03:47:47;6.35;;;4.32;;
51828;SDS011;37881;48.024;8.774;2022-08-01T03:50:19;7.07;;;4.10;;
51828;SDS011;37881;48.024;8.774;2022-08-01T03:52:48;6.60;;;4.00;;
51828;SDS011;37881;48.024;8.774;2022-08-01T03:55:17;6.30;;;4.30;;
51828;SDS011;37881;48.024;8.774;2022-08-01T03:57:46;6.57;;;4.10;;
51828;SDS011;37881;48.024;8.774;2022-08-01T04:00:14;6.53;;;4.47;;
51828;SDS011;37881;48.024;8.774;2022-08-01T04:02:47;7.70;;;4.10;;
51828;SDS011;37881;48.024;8.774;2022-08-01T04:05:16;5.78;;;4.00;;
51828;SDS011;37881;48.024;8.774;2022-08-01T04:07:46;8.73;;;4.72;;
51828;SDS011;37881;48.024;8.774;2022-08-01T04:10:16;6.50;;;4.38;;
51828;SDS011;37881;48.024;8.774;2022-08-01T04:12:43;8.25;;;4.30;;
51828;SDS011;37881;48.024;8.774;2022-08-01T04:15:10;7.40;;;4.33;;
51828;SDS011;37881;48.024;8.774;2022-08-01T04:17:36;7.32;;;4.40;;
51828;SDS011;37881;48.024;8.774;2022-08-01T04:20:03;5.72;;;4.30;;
51828;SDS011;37881;48.024;8.774;2022-08-01T04:22:30;6.60;;;4.13;;
51828;SDS011;37881;48.024;8.774;2022-08-01T04:25:04;10.10;;;4.18;;
51828;SDS011;37881;48.024;8.774;2022-08-01T04:27:38;9.33;;;4.80;;
51828;SDS011;37881;48.024;8.774;2022-08-01T04:30:17;6.13;;;4.20;;
51828;SDS011;37881;48.024;8.774;2022-08-01T04:32:47;7.65;;;4.43;;
51828;SDS011;37881;48.024;8.774;2022-08-01T04:35:16;6.75;;;4.60;;
51828;SDS011;37881;48.024;8.774;2022-08-01T04:38:06;8.05;;;4.70;;
51828;SDS011;37881;48.024;8.774;2022-08-01T04:40:35;6.00;;;4.20;;
51828;SDS011;37881;48.024;8.774;2022-08-01T04:43:03;7.95;;;4.07;;
51828;SDS011;37881;48.024;8.774;2022-08-01T04:45:31;7.68;;;4.40;;
51828;SDS011;37881;48.024;8.774;2022-08-01T04:47:58;6.53;;;4.10;;
51828;SDS011;37881;48.024;8.774;2022-08-01T04:50:26;7.90;;;4.47;;
51828;SDS011;37881;48.024;8.774;2022-08-01T04:52:53;6.87;;;4.60;;
51828;SDS011;37881;48.024;8.774;2022-08-01T04:55:20;7.15;;;4.30;;
51828;SDS011;37881;48.024;8.774;2022-08-01T04:57:47;7.05;;;4.78;;
51828;SDS011;37881;48.024;8.774;2022-08-01T05:00:14;8.45;;;4.70;;
51828;SDS011;37881;48.024;8.774;2022-08-01T05:02:42;10.90;;;4.60;;
51828;SDS011;37881;48.024;8.774;2022-08-01T05:05:09;6.43;;;4.30;;
51828;SDS011;37881;48.024;8.774;2022-08-01T05:07:38;7.90;;;5.07;;
51828;SDS011;37881;48.024;8.774;2022-08-01T05:10:11;6.93;;;4.75;;
51828;SDS011;37881;48.024;8.774;2022-08-01T05:12:37;7.30;;;5.20;;
51828;SDS011;37881;48.024;8.774;2022-08-01T05:15:04;8.95;;;4.93;;
51828;SDS011;37881;48.024;8.774;2022-08-01T05:17:40;8.60;;;5.10;;
51828;SDS011;37881;48.024;8.774;2022-08-01T05:20:08;8.63;;;5.25;;
51828;SDS011;37881;48.024;8.774;2022-08-01T05:22:36;8.13;;;4.90;;
51828;SDS011;37881;48.024;8.774;2022-08-01T05:25:04;10.80;;;5.40;;
51828;SDS011;37881;48.024;8.774;2022-08-01T05:27:32;8.73;;;5.00;;
51828;SDS011;37881;48.024;8.774;2022-08-01T05:29:59;8.17;;;5.47;;
51828;SDS011;37881;48.024;8.774;2022-08-01T05:32:25;7.60;;;5.28;;
51828;SDS011;37881;48.024;8.774;2022-08-01T05:34:53;8.73;;;5.47;;
51828;SDS011;37881;48.024;8.774;2022-08-01T05:37:20;7.78;;;4.90;;
51828;SDS011;37881;48.024;8.774;2022-08-01T05:39:46;7.53;;;4.78;;
51828;SDS011;37881;48.024;8.774;2022-08-01T05:42:13;10.17;;;5.03;;
51828;SDS011;37881;48.024;8.774;2022-08-01T05:44:40;8.93;;;4.93;;
51828;SDS011;37881;48.024;8.774;2022-08-01T05:47:07;7.68;;;4.78;;
51828;SDS011;37881;48.024;8.774;2022-08-01T05:49:34;8.00;;;4.90;;
51828;SDS011;37881;48.024;8.774;2022-08-01T05:52:01;9.32;;;4.78;;
51828;SDS011;37881;48.024;8.774;2022-08-01T05:54:29;8.03;;;4.90;;
51828;SDS011;37881;48.024;8.774;2022-08-01T05:56:56;6.30;;;4.50;;
51828;SDS011;37881;48.024;8.774;2022-08-01T05:59:26;7.95;;;4.47;;
51828;SDS011;37881;48.024;8.774;2022-08-01T06:01:52;7.15;;;4.40;;
51828;SDS011;37881;48.024;8.774;2022-08-01T06:04:19;7.80;;;4.20;;
51828;SDS011;37881;48.024;8.774;2022-08-01T06:06:46;6.50;;;4.03;;
51828;SDS011;37881;48.024;8.774;2022-08-01T06:09:13;6.25;;;4.35;;
51828;SDS011;37881;48.024;8.774;2022-08-01T06:11:40;6.88;;;4.57;;
51828;SDS011;37881;48.024;8.774;2022-08-01T06:14:07;7.50;;;4.40;;
51828;SDS011;37881;48.024;8.774;2022-08-01T06:16:34;5.85;;;4.30;;
51828;SDS011;37881;48.024;8.774;2022-08-01T06:19:00;5.90;;;4.10;;
51828;SDS011;37881;48.024;8.774;2022-08-01T06:21:27;5.05;;;3.67;;
51828;SDS011;37881;48.024;8.774;2022-08-01T06:23:54;5.07;;;3.90;;
51828;SDS011;37881;48.024;8.774;2022-08-01T06:26:21;5.35;;;3.70;;
51828;SDS011;37881;48.024;8.774;2022-08-01T06:28:47;10.45;;;4.18;;
51828;SDS011;37881;48.024;8.774;2022-08-01T06:31:14;4.63;;;3.70;;
51828;SDS011;37881;48.024;8.774;2022-08-01T06:33:41;5.18;;;3.60;;
51828;SDS011;37881;48.024;8.774;2022-08-01T06:36:08;4.18;;;3.47;;
51828;SDS011;37881;48.024;8.774;2022-08-01T06:38:35;5.38;;;3.50;;
51828;SDS011;37881;48.024;8.774;2022-08-01T06:41:02;4.72;;;3.33;;
51828;SDS011;37881;48.024;8.774;2022-08-01T06:43:29;4.73;;;3.47;;
51828;SDS011;37881;48.024;8.774;2022-08-01T06:45:56;4.97;;;3.60;;
51828;SDS011;37881;48.024;8.774;2022-08-01T06:48:23;11.32;;;3.30;;
51828;SDS011;37881;48.024;8.774;2022-08-01T06:50:50;7.68;;;3.67;;
51828;SDS011;37881;48.024;8.774;2022-08-01T06:53:37;4.05;;;2.95;;
51828;SDS011;37881;48.024;8.774;2022-08-01T06:56:05;3.97;;;2.77;;
51828;SDS011;37881;48.024;8.774;2022-08-01T06:58:32;3.80;;;2.90;;
51828;SDS011;37881;48.024;8.774;2022-08-01T07:01:01;3.75;;;2.50;;
51828;SDS011;37881;48.024;8.774;2022-08-01T07:03:33;3.97;;;2.70;;
51828;SDS011;37881;48.024;8.774;2022-08-01T07:06:19;4.20;;;2.58;;
51828;SDS011;37881;48.024;8.774;2022-08-01T07:08:46;3.57;;;2.33;;
51828;SDS011;37881;48.024;8.774;2022-08-01T07:11:13;3.88;;;2.40;;
51828;SDS011;37881;48.024;8.774;2022-08-01T07:13:40;4.97;;;2.45;;
51828;SDS011;37881;48.024;8.774;2022-08-01T07:16:11;3.70;;;2.80;;
51828;SDS011;37881;48.024;8.774;2022-08-01T07:18:39;3.78;;;2.75;;
51828;SDS011;37881;48.024;8.774;2022-08-01T07:21:06;5.63;;;2.93;;
51828;SDS011;37881;48.024;8.774;2022-08-01T07:23:53;6.55;;;3.20;;
51828;SDS011;37881;48.024;8.774;2022-08-01T07:26:21;5.32;;;3.30;;
51828;SDS011;37881;48.024;8.774;2022-08-01T07:28:48;5.10;;;3.50;;
51828;SDS011;37881;48.024;8.774;2022-08-01T07:31:14;5.15;;;3.20;;
51828;SDS011;37881;48.024;8.774;2022-08-01T07:33:41;4.83;;;3.80;;
51828;SDS011;37881;48.024;8.774;2022-08-01T07:36:17;5.72;;;3.83;;
51828;SDS011;37881;48.024;8.774;2022-08-01T07:38:45;5.30;;;3.88;;
51828;SDS011;37881;48.024;8.774;2022-08-01T07:41:12;5.65;;;4.07;;
51828;SDS011;37881;48.024;8.774;2022-08-01T07:43:40;4.80;;;4.10;;
51828;SDS011;37881;48.024;8.774;2022-08-01T07:46:18;5.10;;;3.80;;
51828;SDS011;37881;48.024;8.774;2022-08-01T07:48:45;5.45;;;3.90;;
51828;SDS011;37881;48.024;8.774;2022-08-01T07:51:11;6.90;;;3.90;;
51828;SDS011;37881;48.024;8.774;2022-08-01T07:53:38;6.03;;;3.50;;
51828;SDS011;37881;48.024;8.774;2022-08-01T07:56:05;5.53;;;4.00;;
51828;SDS011;37881;48.024;8.774;2022-08-01T07:58:32;4.83;;;3.80;;
51828;SDS011;37881;48.024;8.774;2022-08-01T08:00:59;5.65;;;3.85;;
51828;SDS011;37881;48.024;8.774;2022-08-01T08:03:26;4.53;;;3.33;;
51828;SDS011;37881;48.024;8.774;2022-08-01T08:05:53;7.20;;;3.35;;
51828;SDS011;37881;48.024;8.774;2022-08-01T08:08:25;5.50;;;3.60;;
51828;SDS011;37881;48.024;8.774;2022-08-01T08:10:53;4.80;;;3.00;;
51828;SDS011;37881;48.024;8.774;2022-08-01T08:13:20;5.05;;;3.42;;
51828;SDS011;37881;48.024;8.774;2022-08-01T08:15:47;4.70;;;3.40;;
51828;SDS011;37881;48.024;8.774;2022-08-01T08:18:14;4.72;;;3.33;;
51828;SDS011;37881;48.024;8.774;2022-08-01T08:20:41;5.00;;;3.40;;
51828;SDS011;37881;48.024;8.774;2022-08-01T08:23:09;6.27;;;3.10;;
51828;SDS011;37881;48.024;8.774;2022-08-01T08:26:09;4.35;;;3.30;;
51828;SDS011;37881;48.024;8.774;2022-08-01T08:28:37;4.50;;;3.30;;
51828;SDS011;37881;48.024;8.774;2022-08-01T08:31:06;5.03;;;3.20;;
51828;SDS011;37881;48.024;8.774;2022-08-01T08:33:54;5.72;;;3.10;;
51828;SDS011;37881;48.024;8.774;2022-08-01T08:36:21;4.20;;;2.93;;
51828;SDS011;37881;48.024;8.774;2022-08-01T08:38:56;3.88;;;2.97;;
51828;SDS011;37881;48.024;8.774;2022-08-01T08:41:23;5.03;;;3.30;;
51828;SDS011;37881;48.024;8.774;2022-08-01T08:43:49;4.63;;;3.05;;
51828;SDS011;37881;48.024;8.774;2022-08-01T08:46:16;7.28;;;3.30;;
51828;SDS011;37881;48.024;8.774;2022-08-01T08:48:54;4.97;;;3.13;;
51828;SDS011;37881;48.024;8.774;2022-08-01T08:51:23;5.28;;;2.90;;
51828;SDS011;37881;48.024;8.774;2022-08-01T08:53:53;3.83;;;2.97;;
51828;SDS011;37881;48.024;8.774;2022-08-01T08:56:23;3.80;;;2.80;;
51828;SDS011;37881;48.024;8.774;2022-08-01T08:58:53;4.80;;;3.30;;
51828;SDS011;37881;48.024;8.774;2022-08-01T09:01:20;5.20;;;3.30;;
51828;SDS011;37881;48.024;8.774;2022-08-01T09:03:48;3.55;;;2.90;;
51828;SDS011;37881;48.024;8.774;2022-08-01T09:06:15;4.05;;;2.90;;
51828;SDS011;37881;48.024;8.774;2022-08-01T09:08:41;4.90;;;3.05;;
51828;SDS011;37881;48.024;8.774;2022-08-01T09:11:08;5.55;;;3.10;;
51828;SDS011;37881;48.024;8.774;2022-08-01T09:13:35;3.70;;;3.07;;
51828;SDS011;37881;48.024;8.774;2022-08-01T09:16:15;5.75;;;3.28;;
51828;SDS011;37881;48.024;8.774;2022-08-01T09:18:43;3.75;;;3.00;;
51828;SDS011;37881;48.024;8.774;2022-08-01T09:21:19;3.65;;;2.60;;
51828;SDS011;37881;48.024;8.774;2022-08-01T09:23:48;4.93;;;2.83;;
51828;SDS011;37881;48.024;8.774;2022-08-01T09:26:41;6.83;;;2.87;;
51828;SDS011;37881;48.024;8.774;2022-08-01T09:29:07;3.53;;;2.67;;
51828;SDS011;37881;48.024;8.774;2022-08-01T09:32:04;4.03;;;2.92;;
51828;SDS011;37881;48.024;8.774;2022-08-01T09:34:32;3.80;;;2.70;;
51828;SDS011;37881;48.024;8.774;2022-08-01T09:37:01;5.28;;;2.92;;
51828;SDS011;37881;48.024;8.774;2022-08-01T09:39:40;4.13;;;2.80;;
51828;SDS011;37881;48.024;8.774;2022-08-01T09:42:22;3.60;;;2.75;;
51828;SDS011;37881;48.024;8.774;2022-08-01T09:44:54;4.32;;;2.80;;
51828;SDS011;37881;48.024;8.774;2022-08-01T09:47:21;3.88;;;2.47;;
51828;SDS011;37881;48.024;8.774;2022-08-01T09:50:04;3.50;;;2.40;;
51828;SDS011;37881;48.024;8.774;2022-08-01T09:52:36;3.83;;;2.33;;
51828;SDS011;37881;48.024;8.774;2022-08-01T09:55:06;3.97;;;2.22;;
51828;SDS011;37881;48.024;8.774;2022-08-01T09:57:33;3.95;;;2.00;;
51828;SDS011;37881;48.024;8.774;2022-08-01T10:00:00;3.45;;;2.28;;
51828;SDS011;37881;48.024;8.774;2022-08-01T10:02:35;3.17;;;2.28;;
51828;SDS011;37881;48.024;8.774;2022-08-01T10:05:04;3.40;;;2.30;;
51828;SDS011;37881;48.024;8.774;2022-08-01T10:07:54;3.78;;;2.22;;
51828;SDS011;37881;48.024;8.774;2022-08-01T10:10:23;2.95;;;2.15;;
51828;SDS011;37881;48.024;8.774;2022-08-01T10:12:55;4.78;;;2.03;;
51828;SDS011;37881;48.024;8.774;2022-08-01T10:15:23;2.80;;;1.92;;
51828;SDS011;37881;48.024;8.774;2022-08-01T10:18:04;3.30;;;2.00;;
51828;SDS011;37881;48.024;8.774;2022-08-01T10:20:51;3.72;;;2.00;;
51828;SDS011;37881;48.024;8.774;2022-08-01T10:23:22;2.90;;;1.70;;
51828;SDS011;37881;48.024;8.774;2022-08-01T10:26:06;3.47;;;1.98;;
51828;SDS011;37881;48.024;8.774;2022-08-01T10:28:35;3.63;;;1.90;;
51828;SDS011;37881;48.024;8.774;2022-08-01T10:31:05;4.33;;;2.23;;
51828;SDS011;37881;48.024;8.774;2022-08-01T10:33:40;3.10;;;2.00;;
51828;SDS011;37881;48.024;8.774;2022-08-01T10:36:19;4.50;;;1.63;;
51828;SDS011;37881;48.024;8.774;2022-08-01T10:38:48;4.82;;;1.90;;
51828;SDS011;37881;48.024;8.774;2022-08-01T10:41:15;3.53;;;1.70;;
51828;SDS011;37881;48.024;8.774;2022-08-01T10:43:45;3.00;;;1.77;;
51828;SDS011;37881;48.024;8.774;2022-08-01T10:46:12;3.30;;;1.52;;
51828;SDS011;37881;48.024;8.774;2022-08-01T10:48:45;3.15;;;1.70;;
51828;SDS011;37881;48.024;8.774;2022-08-01T10:51:20;2.83;;;1.50;;
51828;SDS011;37881;48.024;8.774;2022-08-01T10:54:08;4.35;;;1.70;;
51828;SDS011;37881;48.024;8.774;2022-08-01T10:56:42;2.90;;;1.93;;
51828;SDS011;37881;48.024;8.774;2022-08-01T10:59:14;3.33;;;1.63;;
51828;SDS011;37881;48.024;8.774;2022-08-01T11:02:11;3.88;;;1.65;;
51828;SDS011;37881;48.024;8.774;2022-08-01T11:04:47;2.70;;;1.80;;
51828;SDS011;37881;48.024;8.774;2022-08-01T11:07:32;4.28;;;2.40;;
51828;SDS011;37881;48.024;8.774;2022-08-01T11:10:25;8.60;;;2.70;;
51828;SDS011;37881;48.024;8.774;2022-08-01T11:13:05;4.13;;;2.78;;
51828;SDS011;37881;48.024;8.774;2022-08-01T11:15:39;5.72;;;3.30;;
51828;SDS011;37881;48.024;8.774;2022-08-01T11:18:28;5.22;;;3.20;;
51828;SDS011;37881;48.024;8.774;2022-08-01T11:20:58;4.45;;;3.00;;
51828;SDS011;37881;48.024;8.774;2022-08-01T11:23:47;5.43;;;2.93;;
51828;SDS011;37881;48.024;8.774;2022-08-01T11:26:16;7.43;;;2.80;;
51828;SDS011;37881;48.024;8.774;2022-08-01T11:28:43;3.60;;;2.20;;
51828;SDS011;37881;48.024;8.774;2022-08-01T11:31:32;3.78;;;2.45;;
51828;SDS011;37881;48.024;8.774;2022-08-01T11:34:03;7.63;;;2.55;;
51828;SDS011;37881;48.024;8.774;2022-08-01T11:36:30;3.47;;;2.30;;
51828;SDS011;37881;48.024;8.774;2022-08-01T11:39:17;6.70;;;2.40;;
51828;SDS011;37881;48.024;8.774;2022-08-01T11:41:45;3.70;;;2.55;;
51828;SDS011;37881;48.024;8.774;2022-08-01T11:44:20;5.30;;;2.40;;
51828;SDS011;37881;48.024;8.774;2022-08-01T11:46:59;3.80;;;2.70;;
51828;SDS011;37881;48.024;8.774;2022-08-01T11:49:47;3.33;;;2.47;;
51828;SDS011;37881;48.024;8.774;2022-08-01T11:52:28;3.58;;;2.17;;
51828;SDS011;37881;48.024;8.774;2022-08-01T11:55:06;3.53;;;2.20;;
51828;SDS011;37881;48.024;8.774;2022-08-01T11:57:37;4.95;;;2.20;;
51828;SDS011;37881;48.024;8.774;2022-08-01T12:02:42;3.90;;;2.20;;
51828;SDS011;37881;48.024;8.774;2022-08-01T12:05:12;4.03;;;2.20;;
51828;SDS011;37881;48.024;8.774;2022-08-01T12:07:41;4.28;;;2.50;;
51828;SDS011;37881;48.024;8.774;2022-08-01T12:10:10;3.97;;;2.10;;
51828;SDS011;37881;48.024;8.774;2022-08-01T12:12:46;5.15;;;2.50;;
51828;SDS011;37881;48.024;8.774;2022-08-01T12:15:15;4.40;;;2.30;;
51828;SDS011;37881;48.024;8.774;2022-08-01T12:17:44;3.90;;;2.25;;
51828;SDS011;37881;48.024;8.774;2022-08-01T12:20:28;4.45;;;2.05;;
51828;SDS011;37881;48.024;8.774;2022-08-01T12:22:58;4.43;;;2.25;;
51828;SDS011;37881;48.024;8.774;2022-08-01T12:25:27;4.00;;;1.98;;
51828;SDS011;37881;48.024;8.774;2022-08-01T12:27:54;4.33;;;2.00;;
51828;SDS011;37881;48.024;8.774;2022-08-01T12:30:25;6.05;;;1.90;;
51828;SDS011;37881;48.024;8.774;2022-08-01T12:32:53;3.05;;;1.80;;
51828;SDS011;37881;48.024;8.774;2022-08-01T12:35:21;4.07;;;2.35;;
51828;SDS011;37881;48.024;8.774;2022-08-01T12:37:54;4.07;;;2.00;;
51828;SDS011;37881;48.024;8.774;2022-08-01T12:40:21;6.63;;;1.97;;
51828;SDS011;37881;48.024;8.774;2022-08-01T12:42:50;4.20;;;1.63;;
51828;SDS011;37881;48.024;8.774;2022-08-01T12:45:20;2.90;;;1.65;;
51828;SDS011;37881;48.024;8.774;2022-08-01T12:47:50;4.70;;;2.10;;
51828;SDS011;37881;48.024;8.774;2022-08-01T12:50:22;3.42;;;1.85;;
51828;SDS011;37881;48.024;8.774;2022-08-01T12:52:51;3.47;;;1.63;;
51828;SDS011;37881;48.024;8.774;2022-08-01T12:55:25;4.80;;;1.90;;
51828;SDS011;37881;48.024;8.774;2022-08-01T12:58:10;4.07;;;2.10;;
51828;SDS011;37881;48.024;8.774;2022-08-01T13:00:42;3.05;;;1.80;;
51828;SDS011;37881;48.024;8.774;2022-08-01T13:03:15;3.30;;;1.80;;
51828;SDS011;37881;48.024;8.774;2022-08-01T13:05:54;4.70;;;2.03;;
51828;SDS011;37881;48.024;8.774;2022-08-01T13:08:30;4.25;;;1.70;;
51828;SDS011;37881;48.024;8.774;2022-08-01T13:11:03;6.60;;;1.80;;
51828;SDS011;37881;48.024;8.774;2022-08-01T13:13:44;5.95;;;2.05;;
51828;SDS011;37881;48.024;8.774;2022-08-01T13:16:16;3.35;;;1.90;;
51828;SDS011;37881;48.024;8.774;2022-08-01T13:19:07;4.00;;;1.93;;
51828;SDS011;37881;48.024;8.774;2022-08-01T13:21:34;4.88;;;2.25;;
51828;SDS011;37881;48.024;8.774;2022-08-01T13:24:23;6.25;;;2.05;;
51828;SDS011;37881;48.024;8.774;2022-08-01T13:26:55;4.47;;;1.95;;
51828;SDS011;37881;48.024;8.774;2022-08-01T13:29:35;3.10;;;1.77;;
51828;SDS011;37881;48.024;8.774;2022-08-01T13:32:15;2.83;;;1.80;;
51828;SDS011;37881;48.024;8.774;2022-08-01T13:35:05;3.35;;;1.80;;
51828;SDS011;37881;48.024;8.774;2022-08-01T13:37:34;3.67;;;1.95;;
51828;SDS011;37881;48.024;8.774;2022-08-01T13:40:05;2.55;;;1.70;;
51828;SDS011;37881;48.024;8.774;2022-08-01T13:42:33;4.15;;;1.75;;
51828;SDS011;37881;48.024;8.774;2022-08-01T13:45:01;3.40;;;1.67;;
51828;SDS011;37881;48.024;8.774;2022-08-01T13:47:39;7.53;;;1.70;;
51828;SDS011;37881;48.024;8.774;2022-08-01T13:50:26;3.10;;;1.60;;
51828;SDS011;37881;48.024;8.774;2022-08-01T13:52:52;3.65;;;1.55;;
51828;SDS011;37881;48.024;8.774;2022-08-01T13:55:19;3.83;;;1.65;;
51828;SDS011;37881;48.024;8.774;2022-08-01T13:57:46;4.30;;;1.60;;
51828;SDS011;37881;48.024;8.774;2022-08-01T14:00:13;2.65;;;1.35;;
51828;SDS011;37881;48.024;8.774;2022-08-01T14:02:40;3.88;;;1.73;;
51828;SDS011;37881;48.024;8.774;2022-08-01T14:05:07;3.40;;;1.40;;
51828;SDS011;37881;48.024;8.774;2022-08-01T14:07:34;3.58;;;1.65;;
51828;SDS011;37881;48.024;8.774;2022-08-01T14:10:03;3.47;;;1.70;;
51828;SDS011;37881;48.024;8.774;2022-08-01T14:12:48;3.00;;;1.83;;
51828;SDS011;37881;48.024;8.774;2022-08-01T14:15:16;3.40;;;1.88;;
51828;SDS011;37881;48.024;8.774;2022-08-01T14:18:03;4.20;;;1.67;;
51828;SDS011;37881;48.024;8.774;2022-08-01T14:20:32;3.35;;;1.70;;
51828;SDS011;37881;48.024;8.774;2022-08-01T14:23:00;3.30;;;1.53;;
51828;SDS011;37881;48.024;8.774;2022-08-01T14:25:34;5.00;;;1.70;;
51828;SDS011;37881;48.024;8.774;2022-08-01T14:28:20;3.35;;;1.73;;
51828;SDS011;37881;48.024;8.774;2022-08-01T14:30:47;5.22;;;1.90;;
51828;SDS011;37881;48.024;8.774;2022-08-01T14:33:14;3.40;;;1.90;;
51828;SDS011;37881;48.024;8.774;2022-08-01T14:35:41;3.77;;;2.00;;
51828;SDS011;37881;48.024;8.774;2022-08-01T14:38:28;5.43;;;1.90;;
51828;SDS011;37881;48.024;8.774;2022-08-01T14:40:58;3.42;;;2.53;;
51828;SDS011;37881;48.024;8.774;2022-08-01T14:43:26;4.53;;;2.40;;
51828;SDS011;37881;48.024;8.774;2022-08-01T14:45:59;5.60;;;2.58;;
51828;SDS011;37881;48.024;8.774;2022-08-01T14:48:26;5.47;;;2.43;;
51828;SDS011;37881;48.024;8.774;2022-08-01T14:50:56;4.57;;;2.30;;
51828;SDS011;37881;48.024;8.774;2022-08-01T14:53:23;4.60;;;2.58;;
51828;SDS011;37881;48.024;8.774;2022-08-01T14:55:50;4.00;;;2.60;;
51828;SDS011;37881;48.024;8.774;2022-08-01T14:58:16;5.63;;;2.47;;
51828;SDS011;37881;48.024;8.774;2022-08-01T15:00:43;4.77;;;2.53;;
51828;SDS011;37881;48.024;8.774;2022-08-01T15:03:10;7.85;;;2.50;;
51828;SDS011;37881;48.024;8.774;2022-08-01T15:05:37;3.67;;;2.28;;
51828;SDS011;37881;48.024;8.774;2022-08-01T15:08:03;3.60;;;2.30;;
51828;SDS011;37881;48.024;8.774;2022-08-01T15:10:32;4.18;;;2.38;;
51828;SDS011;37881;48.024;8.774;2022-08-01T15:12:59;4.83;;;2.30;;
51828;SDS011;37881;48.024;8.774;2022-08-01T15:15:27;4.65;;;2.85;;
51828;SDS011;37881;48.024;8.774;2022-08-01T15:17:54;3.65;;;2.45;;
51828;SDS011;37881;48.024;8.774;2022-08-01T15:20:21;3.85;;;2.58;;
51828;SDS011;37881;48.024;8.774;2022-08-01T15:22:48;5.03;;;2.88;;
51828;SDS011;37881;48.024;8.774;2022-08-01T15:25:15;4.20;;;3.00;;
51828;SDS011;37881;48.024;8.774;2022-08-01T15:27:42;5.78;;;2.60;;
51828;SDS011;37881;48.024;8.774;2022-08-01T15:30:08;4.05;;;2.75;;
51828;SDS011;37881;48.024;8.774;2022-08-01T15:32:35;4.53;;;2.90;;